createdAt,value
2018-03-06T00:02:07.378Z,2.13
2018-03-06T00:04:33.835Z,1.93
2018-03-06T00:07:00.019Z,2.20
2018-03-06T00:09:26.229Z,2.30
2018-03-06T00:11:52.399Z,2.20
2018-03-06T00:14:18.625Z,2.70
2018-03-06T00:16:44.851Z,2.33
2018-03-06T00:19:11.307Z,2.70
2018-03-06T00:21:37.486Z,1.80
2018-03-06T00:24:03.767Z,2.37
2018-03-06T00:26:29.965Z,2.70
2018-03-06T00:28:56.176Z,2.20
2018-03-06T00:31:22.755Z,2.40
2018-03-06T00:33:48.928Z,2.23
2018-03-06T00:36:15.418Z,2.30
2018-03-06T00:38:41.630Z,1.90
2018-03-06T00:41:08.077Z,2.13
2018-03-06T00:43:34.310Z,2.47
2018-03-06T00:46:00.734Z,1.70
2018-03-06T00:48:26.918Z,1.90
2018-03-06T00:50:53.157Z,2.33
2018-03-06T00:53:19.328Z,2.20
2018-03-06T00:55:45.799Z,1.93
2018-03-06T00:58:12.299Z,2.40
2018-03-06T01:00:38.497Z,2.30
2018-03-06T01:03:05.065Z,2.10
2018-03-06T01:05:31.263Z,1.97
2018-03-06T01:07:57.821Z,1.93
2018-03-06T01:10:24.047Z,1.80
2018-03-06T01:12:50.241Z,2.20
2018-03-06T01:15:16.454Z,1.90
2018-03-06T01:17:42.668Z,2.10
2018-03-06T01:20:08.938Z,2.03
2018-03-06T01:22:35.200Z,2.33
2018-03-06T01:25:01.500Z,2.00
2018-03-06T01:27:27.702Z,2.20
2018-03-06T01:29:53.963Z,1.87
2018-03-06T01:32:20.191Z,2.10
2018-03-06T01:34:46.387Z,1.83
2018-03-06T01:37:12.621Z,1.77
2018-03-06T01:39:38.895Z,1.80
2018-03-06T01:42:05.109Z,2.27
2018-03-06T01:44:31.302Z,2.80
2018-03-06T01:46:57.616Z,2.17
2018-03-06T01:49:23.860Z,1.40
2018-03-06T01:51:57.219Z,1.97
2018-03-06T01:54:23.731Z,1.87
2018-03-06T01:56:49.930Z,1.70
2018-03-06T01:59:16.496Z,1.83
2018-03-06T02:01:42.678Z,1.80
2018-03-06T02:04:08.892Z,1.90
2018-03-06T02:06:35.324Z,2.37
2018-03-06T02:09:01.572Z,1.43
2018-03-06T02:11:27.779Z,1.90
2018-03-06T02:13:53.990Z,1.70
2018-03-06T02:16:20.200Z,1.70
2018-03-06T02:18:46.398Z,2.13
2018-03-06T02:21:12.963Z,2.00
2018-03-06T02:23:39.495Z,1.70
2018-03-06T02:26:05.701Z,2.00
2018-03-06T02:28:32.256Z,1.80
2018-03-06T02:30:58.470Z,2.03
2018-03-06T02:33:25.023Z,1.70
2018-03-06T02:35:51.248Z,1.90
2018-03-06T02:38:17.503Z,1.63
2018-03-06T02:40:43.679Z,1.67
2018-03-06T02:43:09.882Z,2.10
2018-03-06T02:45:36.213Z,1.90
2018-03-06T02:48:02.421Z,2.03
2018-03-06T02:50:28.926Z,1.80
2018-03-06T02:52:55.158Z,1.80
2018-03-06T02:55:21.387Z,1.80
2018-03-06T02:57:47.574Z,2.20
2018-03-06T03:00:14.049Z,1.70
2018-03-06T03:02:40.577Z,1.70
2018-03-06T03:05:06.776Z,1.60
2018-03-06T03:07:32.975Z,1.70
2018-03-06T03:09:59.191Z,1.93
2018-03-06T03:12:25.421Z,1.90
2018-03-06T03:14:51.656Z,1.90
2018-03-06T03:17:17.921Z,2.03
2018-03-06T03:19:44.383Z,3.40
2018-03-06T03:22:10.628Z,2.07
2018-03-06T03:24:36.832Z,1.60
2018-03-06T03:27:03.078Z,1.70
2018-03-06T03:29:29.570Z,1.50
2018-03-06T03:32:03.205Z,1.97
2018-03-06T03:34:29.741Z,1.60
2018-03-06T03:36:55.956Z,1.37
2018-03-06T03:39:22.174Z,2.23
2018-03-06T03:41:48.728Z,2.27
2018-03-06T03:44:14.929Z,1.63
2018-03-06T03:46:41.140Z,1.90
2018-03-06T03:49:07.384Z,1.70
2018-03-06T03:51:33.602Z,1.80
2018-03-06T03:53:59.843Z,2.00
2018-03-06T03:56:26.304Z,1.67
2018-03-06T03:58:52.505Z,1.80
2018-03-06T04:01:18.746Z,1.83
2018-03-06T04:03:45.018Z,1.60
2018-03-06T04:06:11.523Z,1.77
2018-03-06T04:08:37.772Z,1.73
2018-03-06T04:11:04.062Z,1.60
2018-03-06T04:13:30.265Z,1.70
2018-03-06T04:15:56.463Z,2.27
2018-03-06T04:18:22.709Z,1.70
2018-03-06T04:20:48.925Z,1.60
2018-03-06T04:23:15.162Z,1.80
2018-03-06T04:25:41.400Z,2.03
2018-03-06T04:28:07.663Z,1.50
2018-03-06T04:30:33.878Z,2.00
2018-03-06T04:33:00.127Z,1.70
2018-03-06T04:35:26.344Z,1.80
2018-03-06T04:37:52.695Z,1.50
2018-03-06T04:40:18.870Z,1.67
2018-03-06T04:42:45.462Z,1.80
2018-03-06T04:45:11.919Z,1.80
2018-03-06T04:47:38.150Z,2.00
2018-03-06T04:50:04.752Z,1.97
2018-03-06T04:52:30.949Z,1.70
2018-03-06T04:54:57.212Z,1.97
2018-03-06T04:57:23.499Z,1.70
2018-03-06T04:59:49.710Z,1.53
2018-03-06T05:02:15.920Z,1.80
2018-03-06T05:04:42.141Z,1.73
2018-03-06T05:07:08.308Z,1.70
2018-03-06T05:09:34.563Z,1.67
2018-03-06T05:12:00.738Z,1.87
2018-03-06T05:14:26.925Z,1.77
2018-03-06T05:16:53.167Z,2.10
2018-03-06T05:19:19.374Z,1.90
2018-03-06T05:21:45.673Z,2.03
2018-03-06T05:24:12.259Z,1.83
2018-03-06T05:26:38.792Z,1.70
2018-03-06T05:29:04.978Z,2.00
2018-03-06T05:31:31.186Z,1.63
2018-03-06T05:33:57.636Z,1.93
2018-03-06T05:36:23.883Z,2.27
2018-03-06T05:38:50.344Z,1.90
2018-03-06T05:41:16.562Z,2.30
2018-03-06T05:43:42.806Z,2.17
2018-03-06T05:46:08.987Z,2.10
2018-03-06T05:48:35.507Z,2.43
2018-03-06T05:51:02.707Z,1.60
2018-03-06T05:53:28.898Z,1.90
2018-03-06T05:55:55.120Z,2.20
2018-03-06T05:58:21.285Z,2.00
2018-03-06T06:00:47.560Z,1.93
2018-03-06T06:03:13.735Z,2.50
2018-03-06T06:05:39.977Z,2.40
2018-03-06T06:08:06.213Z,2.10
2018-03-06T06:10:33.373Z,2.43
2018-03-06T06:12:59.891Z,2.20
2018-03-06T06:15:26.175Z,2.30
2018-03-06T06:17:52.444Z,2.27
2018-03-06T06:20:18.582Z,2.50
2018-03-06T06:22:44.745Z,3.90
2018-03-06T06:25:10.965Z,4.20
2018-03-06T06:27:37.150Z,3.20
2018-03-06T06:30:03.350Z,3.43
2018-03-06T06:32:31.452Z,4.03
2018-03-06T06:34:57.658Z,4.00
2018-03-06T06:37:24.328Z,2.97
2018-03-06T06:39:50.532Z,4.03
2018-03-06T06:42:16.826Z,3.23
2018-03-06T06:44:43.314Z,2.90
2018-03-06T06:47:09.613Z,3.63
2018-03-06T06:49:35.847Z,3.80
2018-03-06T06:52:02.024Z,3.30
2018-03-06T06:54:28.635Z,3.97
2018-03-06T06:56:54.829Z,2.50
2018-03-06T06:59:21.030Z,3.33
2018-03-06T07:01:47.306Z,3.83
2018-03-06T07:04:13.488Z,3.27
2018-03-06T07:06:39.727Z,3.30
2018-03-06T07:09:05.908Z,3.00
2018-03-06T07:11:32.091Z,3.67
2018-03-06T07:13:58.278Z,3.20
2018-03-06T07:16:24.472Z,3.60
2018-03-06T07:18:51.026Z,2.80
2018-03-06T07:21:17.212Z,3.37
2018-03-06T07:23:43.624Z,4.50
2018-03-06T07:26:09.808Z,4.40
2018-03-06T07:28:36.129Z,3.33
2018-03-06T07:31:02.285Z,3.70
2018-03-06T07:33:28.484Z,4.20
2018-03-06T07:35:54.679Z,4.60
2018-03-06T07:38:20.891Z,4.33
2018-03-06T07:40:47.095Z,4.00
2018-03-06T07:43:13.618Z,4.27
2018-03-06T07:45:39.843Z,3.23
2018-03-06T07:48:06.120Z,3.83
2018-03-06T07:50:32.278Z,4.90
2018-03-06T07:52:58.444Z,3.27
2018-03-06T07:55:24.643Z,4.17
2018-03-06T07:57:50.833Z,3.10
2018-03-06T08:00:17.054Z,3.97
2018-03-06T08:02:43.226Z,3.60
2018-03-06T08:05:09.637Z,3.30
2018-03-06T08:07:35.823Z,3.40
2018-03-06T08:10:02.123Z,3.80
2018-03-06T08:12:28.308Z,3.63
2018-03-06T08:14:54.475Z,3.53
2018-03-06T08:17:21.015Z,3.70
2018-03-06T08:19:47.220Z,4.00
2018-03-06T08:22:13.459Z,3.73
2018-03-06T08:24:39.631Z,3.43
2018-03-06T08:27:05.798Z,4.00
2018-03-06T08:29:32.032Z,3.60
2018-03-06T08:31:58.221Z,3.53
2018-03-06T08:34:24.417Z,3.97
2018-03-06T08:36:50.587Z,4.23
2018-03-06T08:39:16.823Z,3.30
2018-03-06T08:41:43.027Z,3.93
2018-03-06T08:44:09.235Z,4.43
2018-03-06T08:46:35.460Z,3.40
2018-03-06T08:49:01.672Z,3.57
2018-03-06T08:51:27.905Z,4.23
2018-03-06T08:53:54.053Z,4.20
2018-03-06T08:56:20.558Z,3.67
2018-03-06T08:58:47.090Z,3.23
2018-03-06T09:01:13.312Z,3.73
2018-03-06T09:03:39.555Z,3.90
2018-03-06T09:06:05.705Z,4.13
2018-03-06T09:08:31.901Z,4.17
2018-03-06T09:10:58.099Z,4.50
2018-03-06T09:13:24.316Z,3.67
2018-03-06T09:15:50.796Z,3.70
2018-03-06T09:18:16.970Z,3.30
2018-03-06T09:20:43.213Z,3.90
2018-03-06T09:23:09.403Z,3.97
2018-03-06T09:25:35.569Z,4.90
2018-03-06T09:28:02.134Z,4.93
2018-03-06T09:30:28.340Z,3.30
2018-03-06T09:32:54.797Z,4.50
2018-03-06T09:35:21.019Z,4.30
2018-03-06T09:37:47.463Z,4.13
2018-03-06T09:40:13.636Z,4.47
2018-03-06T09:42:39.796Z,3.30
2018-03-06T09:45:05.983Z,4.40
2018-03-06T09:47:32.194Z,4.20
2018-03-06T09:49:58.702Z,4.00
2018-03-06T09:52:24.917Z,4.20
2018-03-06T09:54:51.132Z,4.80
2018-03-06T09:57:17.318Z,4.30
2018-03-06T09:59:43.491Z,4.20
2018-03-06T10:02:09.728Z,4.20
2018-03-06T10:04:35.918Z,5.30
2018-03-06T10:07:02.091Z,4.40
2018-03-06T10:09:28.550Z,3.73
2018-03-06T10:11:54.742Z,4.30
2018-03-06T10:14:20.901Z,4.23
2018-03-06T10:16:47.075Z,4.33
2018-03-06T10:19:13.264Z,4.30
2018-03-06T10:21:39.493Z,4.80
2018-03-06T10:24:05.681Z,4.80
2018-03-06T10:26:31.863Z,4.40
2018-03-06T10:28:58.153Z,4.47
2018-03-06T10:31:24.353Z,4.80
2018-03-06T10:33:50.615Z,4.30
2018-03-06T10:36:16.891Z,4.60
2018-03-06T10:38:43.143Z,4.80
2018-03-06T10:41:09.322Z,3.67
2018-03-06T10:43:35.508Z,4.77
2018-03-06T10:46:01.705Z,5.43
2018-03-06T10:48:27.912Z,4.60
2018-03-06T10:50:54.069Z,4.57
2018-03-06T10:53:20.275Z,4.97
2018-03-06T10:55:46.486Z,4.97
2018-03-06T10:58:12.652Z,5.43
2018-03-06T11:00:44.786Z,5.10
2018-03-06T11:03:10.945Z,4.60
2018-03-06T11:05:37.152Z,5.60
2018-03-06T11:08:03.318Z,4.87
2018-03-06T11:10:29.543Z,5.30
2018-03-06T11:12:55.828Z,5.30
2018-03-06T11:15:22.066Z,7.07
2018-03-06T11:17:48.283Z,5.77
2018-03-06T11:20:14.490Z,6.10
2018-03-06T11:22:40.736Z,5.83
2018-03-06T11:25:06.920Z,6.00
2018-03-06T11:27:33.083Z,5.60
2018-03-06T11:29:59.319Z,5.90
2018-03-06T11:32:25.507Z,5.93
2018-03-06T11:34:51.692Z,5.63
2018-03-06T11:37:17.975Z,6.73
2018-03-06T11:39:44.176Z,6.30
2018-03-06T11:42:10.358Z,5.90
2018-03-06T11:44:36.571Z,6.90
2018-03-06T11:47:02.774Z,6.97
2018-03-06T11:49:29.267Z,6.80
2018-03-06T11:51:55.443Z,7.87
2018-03-06T11:54:21.968Z,7.63
2018-03-06T11:56:48.235Z,7.83
2018-03-06T11:59:14.394Z,7.80
2018-03-06T12:01:40.592Z,7.40
2018-03-06T12:04:07.179Z,6.60
2018-03-06T12:06:33.368Z,7.53
2018-03-06T12:08:59.777Z,6.17
2018-03-06T12:11:26.054Z,6.90
2018-03-06T12:13:52.265Z,7.53
2018-03-06T12:16:18.463Z,7.37
2018-03-06T12:18:44.707Z,7.60
2018-03-06T12:21:11.166Z,7.97
2018-03-06T12:23:37.336Z,7.40
2018-03-06T12:26:03.953Z,8.13
2018-03-06T12:28:30.140Z,6.60
2018-03-06T12:30:56.356Z,7.63
2018-03-06T12:33:22.587Z,7.60
2018-03-06T12:35:48.744Z,7.07
2018-03-06T12:38:15.192Z,7.37
2018-03-06T12:40:41.738Z,7.60
2018-03-06T12:43:08.274Z,6.83
2018-03-06T12:45:34.502Z,6.40
2018-03-06T12:48:00.703Z,7.23
2018-03-06T12:50:26.914Z,7.80
2018-03-06T12:52:53.165Z,7.83
2018-03-06T12:55:19.611Z,7.50
2018-03-06T12:57:46.054Z,7.80
2018-03-06T13:00:12.505Z,9.40
2018-03-06T13:02:38.674Z,7.40
2018-03-06T13:05:04.893Z,8.23
2018-03-06T13:07:31.370Z,8.27
2018-03-06T13:09:57.546Z,6.87
2018-03-06T13:12:23.794Z,7.93
2018-03-06T13:14:49.999Z,6.93
2018-03-06T13:17:16.158Z,7.53
2018-03-06T13:19:42.395Z,7.60
2018-03-06T13:22:08.896Z,7.60
2018-03-06T13:24:35.387Z,7.30
2018-03-06T13:27:01.917Z,7.20
2018-03-06T13:29:28.193Z,7.60
2018-03-06T13:31:54.441Z,7.67
2018-03-06T13:34:20.667Z,9.07
2018-03-06T13:36:46.884Z,7.73
2018-03-06T13:39:13.116Z,8.20
2018-03-06T13:41:39.593Z,8.50
2018-03-06T13:44:06.124Z,8.60
2018-03-06T13:46:32.350Z,8.83
2018-03-06T13:48:58.538Z,8.40
2018-03-06T13:51:24.734Z,7.40
2018-03-06T13:53:50.950Z,8.63
2018-03-06T13:56:17.166Z,7.93
2018-03-06T13:58:43.416Z,8.60
2018-03-06T14:01:09.636Z,8.43
2018-03-06T14:03:35.861Z,8.17
2018-03-06T14:06:02.076Z,7.73
2018-03-06T14:08:28.252Z,8.27
2018-03-06T14:10:54.440Z,8.00
2018-03-06T14:13:20.678Z,7.40
2018-03-06T14:15:47.188Z,8.90
2018-03-06T14:18:13.731Z,9.10
2018-03-06T14:20:39.938Z,8.50
2018-03-06T14:23:06.210Z,8.07
2018-03-06T14:25:39.357Z,8.03
2018-03-06T14:28:05.566Z,7.60
2018-03-06T14:30:31.787Z,8.23
2018-03-06T14:32:58.062Z,7.97
2018-03-06T14:35:24.329Z,7.50
2018-03-06T14:37:50.519Z,7.20
2018-03-06T14:40:17.016Z,8.03
2018-03-06T14:42:43.240Z,7.67
2018-03-06T14:45:09.463Z,7.20
2018-03-06T14:47:35.677Z,7.43
2018-03-06T14:50:01.864Z,6.93
2018-03-06T14:52:28.105Z,6.80
2018-03-06T14:54:54.285Z,7.90
2018-03-06T14:57:20.465Z,7.77
2018-03-06T14:59:46.722Z,7.60
2018-03-06T15:02:12.880Z,7.90
2018-03-06T15:04:39.059Z,8.80
2018-03-06T15:07:05.299Z,8.93
2018-03-06T15:09:31.482Z,7.23
2018-03-06T15:11:57.737Z,7.90
2018-03-06T15:14:24.006Z,7.00
2018-03-06T15:16:50.172Z,7.57
2018-03-06T15:19:16.342Z,8.27
2018-03-06T15:21:42.537Z,7.37
2018-03-06T15:24:08.706Z,7.80
2018-03-06T15:26:34.914Z,9.03
2018-03-06T15:29:01.120Z,7.70
2018-03-06T15:31:27.377Z,7.20
2018-03-06T15:33:53.659Z,7.60
2018-03-06T15:36:19.839Z,7.40
2018-03-06T15:38:46.067Z,7.73
2018-03-06T15:41:12.245Z,7.27
2018-03-06T15:43:38.417Z,7.67
2018-03-06T15:46:04.674Z,7.60
2018-03-06T15:48:30.868Z,7.50
2018-03-06T15:50:57.070Z,8.43
2018-03-06T15:53:23.278Z,6.87
2018-03-06T15:55:49.464Z,7.23
2018-03-06T15:58:16.045Z,8.00
2018-03-06T16:00:42.218Z,8.03
2018-03-06T16:03:08.393Z,7.60
2018-03-06T16:05:34.593Z,7.63
2018-03-06T16:08:01.057Z,7.80
2018-03-06T16:10:27.368Z,7.13
2018-03-06T16:12:53.995Z,8.17
2018-03-06T16:15:20.159Z,6.90
2018-03-06T16:17:46.365Z,8.10
2018-03-06T16:20:12.565Z,8.40
2018-03-06T16:22:38.789Z,7.27
2018-03-06T16:25:04.961Z,7.60
2018-03-06T16:27:31.190Z,7.50
2018-03-06T16:29:57.621Z,7.70
2018-03-06T16:32:23.840Z,7.23
2018-03-06T16:34:50.112Z,7.50
2018-03-06T16:37:16.305Z,7.83
2018-03-06T16:39:42.841Z,8.00
2018-03-06T16:42:09.051Z,8.20
2018-03-06T16:44:35.249Z,7.27
2018-03-06T16:47:01.427Z,7.47
2018-03-06T16:49:27.955Z,7.63
2018-03-06T16:51:54.201Z,7.10
2018-03-06T16:54:20.376Z,7.33
2018-03-06T16:56:46.641Z,7.60
2018-03-06T16:59:12.861Z,7.80
2018-03-06T17:01:39.059Z,7.97
2018-03-06T17:04:05.631Z,7.43
2018-03-06T17:06:31.818Z,7.13
2018-03-06T17:08:58.007Z,7.77
2018-03-06T17:11:24.223Z,7.17
2018-03-06T17:13:50.418Z,7.60
2018-03-06T17:16:16.646Z,6.17
2018-03-06T17:18:43.148Z,8.57
2018-03-06T17:21:09.386Z,8.33
2018-03-06T17:23:35.571Z,7.53
2018-03-06T17:26:01.757Z,6.80
2018-03-06T17:28:27.967Z,8.60
2018-03-06T17:30:54.177Z,7.47
2018-03-06T17:33:20.342Z,7.90
2018-03-06T17:35:46.567Z,6.90
2018-03-06T17:38:12.784Z,7.63
2018-03-06T17:40:38.980Z,8.33
2018-03-06T17:43:05.193Z,7.73
2018-03-06T17:45:31.392Z,6.80
2018-03-06T17:47:57.947Z,7.73
2018-03-06T17:50:24.110Z,7.10
2018-03-06T17:52:50.552Z,7.53
2018-03-06T17:55:16.739Z,7.10
2018-03-06T17:57:42.913Z,8.70
2018-03-06T18:00:09.151Z,7.90
2018-03-06T18:02:35.402Z,7.60
2018-03-06T18:05:01.582Z,8.27
2018-03-06T18:07:27.784Z,8.00
2018-03-06T18:09:53.964Z,8.47
2018-03-06T18:12:20.430Z,9.47
2018-03-06T18:14:46.617Z,7.80
2018-03-06T18:17:13.094Z,8.10
2018-03-06T18:19:39.933Z,8.43
2018-03-06T18:22:06.116Z,7.50
2018-03-06T18:24:32.293Z,8.50
2018-03-06T18:26:58.500Z,8.40
2018-03-06T18:29:24.920Z,8.00
2018-03-06T18:31:51.139Z,7.37
2018-03-06T18:34:17.416Z,8.20
2018-03-06T18:36:43.632Z,7.87
2018-03-06T18:39:09.812Z,8.60
2018-03-06T18:41:36.012Z,8.50
2018-03-06T18:44:02.195Z,8.03
2018-03-06T18:46:28.641Z,7.63
2018-03-06T18:48:54.882Z,8.30
2018-03-06T18:51:21.099Z,8.37
2018-03-06T18:53:47.266Z,8.93
2018-03-06T18:56:13.465Z,9.70
2018-03-06T18:58:39.695Z,8.53
2018-03-06T19:04:19.165Z,8.17
2018-03-06T19:09:43.418Z,8.57
2018-03-06T19:12:09.829Z,8.50
2018-03-06T19:14:36.315Z,7.73
2018-03-06T19:17:02.876Z,8.97
2018-03-06T19:19:29.029Z,7.70
2018-03-06T19:21:55.259Z,8.40
2018-03-06T19:24:21.742Z,10.03
2018-03-06T19:26:55.131Z,7.93
2018-03-06T19:29:21.307Z,8.20
2018-03-06T19:31:47.794Z,8.53
2018-03-06T19:34:14.019Z,8.20
2018-03-06T19:36:40.193Z,8.07
2018-03-06T19:39:06.357Z,8.10
2018-03-06T19:41:32.667Z,8.77
2018-03-06T19:43:58.894Z,8.13
2018-03-06T19:46:25.049Z,7.03
2018-03-06T19:48:51.246Z,8.70
2018-03-06T19:51:17.423Z,9.13
2018-03-06T19:53:43.588Z,7.53
2018-03-06T19:56:09.768Z,9.40
2018-03-06T19:58:35.930Z,7.13
2018-03-06T20:01:02.244Z,8.13
2018-03-06T20:03:28.412Z,7.93
2018-03-06T20:05:54.649Z,8.00
2018-03-06T20:08:20.806Z,8.03
2018-03-06T20:10:46.985Z,7.93
2018-03-06T20:13:13.181Z,7.83
2018-03-06T20:15:39.376Z,8.20
2018-03-06T20:18:05.540Z,7.67
2018-03-06T20:20:31.675Z,7.83
2018-03-06T20:22:58.178Z,7.97
2018-03-06T20:25:30.553Z,7.30
2018-03-06T20:27:56.751Z,7.30
2018-03-06T20:30:29.359Z,7.90
2018-03-06T20:33:01.697Z,7.93
2018-03-06T20:35:27.915Z,7.27
2018-03-06T20:37:54.095Z,7.97
2018-03-06T20:40:26.288Z,7.80
2018-03-06T20:42:52.429Z,7.43
2018-03-06T20:45:18.622Z,8.10
2018-03-06T20:47:44.791Z,6.97
2018-03-06T20:50:10.988Z,7.90
2018-03-06T20:55:39.327Z,7.50
2018-03-06T20:58:05.472Z,6.63
2018-03-06T21:00:31.914Z,8.13
2018-03-06T21:02:58.126Z,7.77
2018-03-06T21:05:24.281Z,7.43
2018-03-06T21:07:50.695Z,7.70
2018-03-06T21:10:17.135Z,6.80
2018-03-06T21:12:43.362Z,7.97
2018-03-06T21:15:09.541Z,8.17
2018-03-06T21:17:35.696Z,7.23
2018-03-06T21:20:01.899Z,6.90
2018-03-06T21:22:28.380Z,6.53
2018-03-06T21:24:54.584Z,7.50
2018-03-06T21:27:20.745Z,7.50
2018-03-06T21:29:46.930Z,7.00
2018-03-06T21:32:13.086Z,7.53
2018-03-06T21:34:39.287Z,7.60
2018-03-06T21:37:05.479Z,7.57
2018-03-06T21:39:31.668Z,6.83
2018-03-06T21:41:57.853Z,7.57
2018-03-06T21:44:24.032Z,6.50
2018-03-06T21:46:50.204Z,6.67
2018-03-06T21:49:16.683Z,8.60
2018-03-06T21:51:42.831Z,8.30
2018-03-06T21:54:09.001Z,7.43
2018-03-06T21:56:35.182Z,7.63
2018-03-06T21:59:01.384Z,6.80
2018-03-06T22:01:27.560Z,8.00
2018-03-06T22:03:53.734Z,7.67
2018-03-06T22:06:19.934Z,7.03
2018-03-06T22:08:46.119Z,7.80
2018-03-06T22:11:12.304Z,7.60
2018-03-06T22:13:38.759Z,7.83
2018-03-06T22:16:04.976Z,7.73
2018-03-06T22:18:31.464Z,8.40
2018-03-06T22:20:57.617Z,8.50
2018-03-06T22:23:23.844Z,8.40
2018-03-06T22:25:50.010Z,6.73
2018-03-06T22:28:16.188Z,7.13
2018-03-06T22:30:42.415Z,7.90
2018-03-06T22:33:08.581Z,7.13
2018-03-06T22:35:34.756Z,8.97
2018-03-06T22:38:01.062Z,7.30
2018-03-06T22:40:27.316Z,7.60
2018-03-06T22:42:53.506Z,7.73
2018-03-06T22:45:19.738Z,7.37
2018-03-06T22:47:46.262Z,7.40
2018-03-06T22:50:12.430Z,7.37
2018-03-06T22:52:38.626Z,7.53
2018-03-06T22:55:04.814Z,7.20
2018-03-06T22:57:31.004Z,7.60
2018-03-06T22:59:57.239Z,7.17
2018-03-06T23:02:23.388Z,7.50
2018-03-06T23:04:49.777Z,6.80
2018-03-06T23:07:15.970Z,7.03
2018-03-06T23:09:42.252Z,7.20
2018-03-06T23:12:08.471Z,7.27
2018-03-06T23:14:34.661Z,7.13
2018-03-06T23:17:01.202Z,7.60
2018-03-06T23:19:27.351Z,7.00
2018-03-06T23:21:53.562Z,7.60
2018-03-06T23:24:19.723Z,7.13
2018-03-06T23:26:45.895Z,7.40
2018-03-06T23:29:12.093Z,7.37
2018-03-06T23:31:38.273Z,7.57
2018-03-06T23:34:04.594Z,8.57
2018-03-06T23:36:30.732Z,6.83
2018-03-06T23:38:56.929Z,7.20
2018-03-06T23:41:23.137Z,7.40
2018-03-06T23:43:49.293Z,7.13
2018-03-06T23:46:15.737Z,7.47
2018-03-06T23:48:42.270Z,7.00
2018-03-06T23:51:08.518Z,7.30
2018-03-06T23:53:34.702Z,7.10
2018-03-06T23:56:00.910Z,7.57
2018-03-06T23:58:27.061Z,7.40
